sensor_id;sensor_type;location;lat;lon;timestamp;P1;durP1;ratioP1;P2;durP2;ratioP2
20000;SDS011;10161;41.188;-8.642;2022-10-30T00:01:42;5.67;;;2.67;;
20000;SDS011;10161;41.188;-8.642;2022-10-30T00:04:10;6.70;;;2.70;;
20000;SDS011;10161;41.188;-8.642;2022-10-30T00:06:37;8.43;;;3.10;;
20000;SDS011;10161;41.188;-8.642;2022-10-30T00:09:04;9.57;;;3.50;;
20000;SDS011;10161;41.188;-8.642;2022-10-30T00:11:31;11.93;;;3.50;;
20000;SDS011;10161;41.188;-8.642;2022-10-30T00:13:58;12.70;;;3.60;;
20000;SDS011;10161;41.188;-8.642;2022-10-30T00:19:46;9.83;;;3.53;;
20000;SDS011;10161;41.188;-8.642;2022-10-30T00:22:13;7.20;;;3.47;;
20000;SDS011;10161;41.188;-8.642;2022-10-30T00:24:40;7.97;;;3.40;;
20000;SDS011;10161;41.188;-8.642;2022-10-30T00:27:07;8.20;;;3.40;;
20000;SDS011;10161;41.188;-8.642;2022-10-30T00:29:34;7.57;;;3.27;;
20000;SDS011;10161;41.188;-8.642;2022-10-30T00:32:00;12.37;;;4.27;;
20000;SDS011;10161;41.188;-8.642;2022-10-30T00:34:27;13.53;;;3.60;;
20000;SDS011;10161;41.188;-8.642;2022-10-30T00:36:56;12.33;;;3.83;;
20000;SDS011;10161;41.188;-8.642;2022-10-30T00:39:22;11.70;;;3.80;;
20000;SDS011;10161;41.188;-8.642;2022-10-30T00:41:49;15.83;;;3.73;;
20000;SDS011;10161;41.188;-8.642;2022-10-30T00:44:34;7.73;;;3.40;;
20000;SDS011;10161;41.188;-8.642;2022-10-30T00:47:03;13.13;;;4.10;;
20000;SDS011;10161;41.188;-8.642;2022-10-30T00:49:32;11.40;;;3.50;;
20000;SDS011;10161;41.188;-8.642;2022-10-30T00:52:02;6.63;;;3.40;;
20000;SDS011;10161;41.188;-8.642;2022-10-30T00:54:31;7.40;;;2.53;;
20000;SDS011;10161;41.188;-8.642;2022-10-30T00:56:58;8.13;;;2.50;;
20000;SDS011;10161;41.188;-8.642;2022-10-30T00:59:27;5.40;;;2.90;;
20000;SDS011;10161;41.188;-8.642;2022-10-30T01:01:56;5.20;;;2.70;;
20000;SDS011;10161;41.188;-8.642;2022-10-30T01:04:23;7.93;;;2.93;;
20000;SDS011;10161;41.188;-8.642;2022-10-30T01:06:51;9.00;;;3.63;;
20000;SDS011;10161;41.188;-8.642;2022-10-30T01:09:20;8.97;;;3.60;;
20000;SDS011;10161;41.188;-8.642;2022-10-30T01:11:47;9.67;;;3.93;;
20000;SDS011;10161;41.188;-8.642;2022-10-30T01:14:15;7.90;;;3.43;;
20000;SDS011;10161;41.188;-8.642;2022-10-30T01:17:03;10.13;;;3.10;;
20000;SDS011;10161;41.188;-8.642;2022-10-30T01:19:38;7.40;;;2.70;;
20000;SDS011;10161;41.188;-8.642;2022-10-30T01:22:18;5.30;;;2.67;;
20000;SDS011;10161;41.188;-8.642;2022-10-30T01:25:02;8.57;;;3.20;;
20000;SDS011;10161;41.188;-8.642;2022-10-30T01:27:37;5.63;;;2.80;;
20000;SDS011;10161;41.188;-8.642;2022-10-30T01:30:15;3.77;;;2.23;;
20000;SDS011;10161;41.188;-8.642;2022-10-30T01:32:52;6.97;;;2.63;;
20000;SDS011;10161;41.188;-8.642;2022-10-30T01:35:26;6.27;;;2.50;;
20000;SDS011;10161;41.188;-8.642;2022-10-30T01:37:57;7.40;;;3.23;;
20000;SDS011;10161;41.188;-8.642;2022-10-30T01:43:30;7.40;;;2.50;;
20000;SDS011;10161;41.188;-8.642;2022-10-30T01:46:07;5.10;;;2.27;;
20000;SDS011;10161;41.188;-8.642;2022-10-30T01:51:50;8.27;;;2.60;;
20000;SDS011;10161;41.188;-8.642;2022-10-30T01:54:25;2.50;;;1.80;;
20000;SDS011;10161;41.188;-8.642;2022-10-30T01:57:01;5.93;;;2.47;;
20000;SDS011;10161;41.188;-8.642;2022-10-30T01:59:30;8.00;;;2.43;;
20000;SDS011;10161;41.188;-8.642;2022-10-30T02:01:59;5.03;;;2.00;;
20000;SDS011;10161;41.188;-8.642;2022-10-30T02:04:26;4.57;;;2.30;;
20000;SDS011;10161;41.188;-8.642;2022-10-30T02:06:53;6.73;;;2.30;;
20000;SDS011;10161;41.188;-8.642;2022-10-30T02:09:20;5.67;;;2.30;;
20000;SDS011;10161;41.188;-8.642;2022-10-30T02:11:47;3.90;;;2.20;;
20000;SDS011;10161;41.188;-8.642;2022-10-30T02:14:17;3.90;;;2.00;;
20000;SDS011;10161;41.188;-8.642;2022-10-30T02:16:47;2.70;;;2.10;;
20000;SDS011;10161;41.188;-8.642;2022-10-30T02:19:16;6.00;;;3.30;;
20000;SDS011;10161;41.188;-8.642;2022-10-30T02:21:44;5.83;;;2.50;;
20000;SDS011;10161;41.188;-8.642;2022-10-30T02:24:11;2.77;;;2.00;;
20000;SDS011;10161;41.188;-8.642;2022-10-30T02:26:38;3.97;;;2.57;;
20000;SDS011;10161;41.188;-8.642;2022-10-30T02:29:05;7.27;;;2.67;;
20000;SDS011;10161;41.188;-8.642;2022-10-30T02:31:32;5.60;;;2.73;;
20000;SDS011;10161;41.188;-8.642;2022-10-30T02:33:59;5.00;;;2.30;;
20000;SDS011;10161;41.188;-8.642;2022-10-30T02:36:25;5.17;;;2.40;;
20000;SDS011;10161;41.188;-8.642;2022-10-30T02:38:54;3.50;;;2.20;;
20000;SDS011;10161;41.188;-8.642;2022-10-30T02:41:21;5.50;;;2.43;;
20000;SDS011;10161;41.188;-8.642;2022-10-30T02:43:49;6.37;;;2.37;;
20000;SDS011;10161;41.188;-8.642;2022-10-30T02:46:16;5.63;;;2.30;;
20000;SDS011;10161;41.188;-8.642;2022-10-30T02:51:37;6.10;;;3.30;;
20000;SDS011;10161;41.188;-8.642;2022-10-30T02:54:05;4.53;;;2.23;;
20000;SDS011;10161;41.188;-8.642;2022-10-30T02:56:33;3.23;;;2.37;;
20000;SDS011;10161;41.188;-8.642;2022-10-30T02:58:59;6.30;;;2.70;;
20000;SDS011;10161;41.188;-8.642;2022-10-30T03:01:26;3.00;;;2.10;;
20000;SDS011;10161;41.188;-8.642;2022-10-30T03:04:03;4.83;;;2.40;;
20000;SDS011;10161;41.188;-8.642;2022-10-30T03:06:30;3.40;;;2.20;;
20000;SDS011;10161;41.188;-8.642;2022-10-30T03:08:57;5.30;;;2.57;;
20000;SDS011;10161;41.188;-8.642;2022-10-30T03:11:25;4.70;;;2.50;;
20000;SDS011;10161;41.188;-8.642;2022-10-30T03:13:55;5.10;;;2.30;;
20000;SDS011;10161;41.188;-8.642;2022-10-30T03:16:23;5.07;;;2.50;;
20000;SDS011;10161;41.188;-8.642;2022-10-30T03:18:53;8.30;;;2.93;;
20000;SDS011;10161;41.188;-8.642;2022-10-30T03:21:21;3.60;;;2.60;;
20000;SDS011;10161;41.188;-8.642;2022-10-30T03:23:49;3.97;;;2.00;;
20000;SDS011;10161;41.188;-8.642;2022-10-30T03:26:17;3.33;;;2.33;;
20000;SDS011;10161;41.188;-8.642;2022-10-30T03:28:45;3.10;;;2.10;;
20000;SDS011;10161;41.188;-8.642;2022-10-30T03:31:13;4.20;;;2.40;;
20000;SDS011;10161;41.188;-8.642;2022-10-30T03:33:41;3.50;;;2.13;;
20000;SDS011;10161;41.188;-8.642;2022-10-30T03:36:08;4.30;;;2.23;;
20000;SDS011;10161;41.188;-8.642;2022-10-30T03:38:36;3.57;;;2.23;;
20000;SDS011;10161;41.188;-8.642;2022-10-30T03:41:04;3.30;;;2.33;;
20000;SDS011;10161;41.188;-8.642;2022-10-30T03:43:31;5.03;;;2.53;;
20000;SDS011;10161;41.188;-8.642;2022-10-30T03:46:00;5.77;;;2.23;;
20000;SDS011;10161;41.188;-8.642;2022-10-30T03:48:27;2.60;;;1.93;;
20000;SDS011;10161;41.188;-8.642;2022-10-30T03:50:54;4.37;;;2.70;;
20000;SDS011;10161;41.188;-8.642;2022-10-30T03:53:22;4.67;;;2.37;;
20000;SDS011;10161;41.188;-8.642;2022-10-30T03:56:02;3.60;;;2.43;;
20000;SDS011;10161;41.188;-8.642;2022-10-30T03:58:30;5.27;;;2.43;;
20000;SDS011;10161;41.188;-8.642;2022-10-30T04:01:00;5.03;;;2.97;;
20000;SDS011;10161;41.188;-8.642;2022-10-30T04:03:27;4.60;;;2.73;;
20000;SDS011;10161;41.188;-8.642;2022-10-30T04:05:54;6.80;;;2.70;;
20000;SDS011;10161;41.188;-8.642;2022-10-30T04:08:21;3.63;;;2.60;;
20000;SDS011;10161;41.188;-8.642;2022-10-30T04:13:28;5.40;;;2.73;;
20000;SDS011;10161;41.188;-8.642;2022-10-30T04:15:54;5.07;;;3.10;;
20000;SDS011;10161;41.188;-8.642;2022-10-30T04:18:23;3.70;;;2.80;;
20000;SDS011;10161;41.188;-8.642;2022-10-30T04:20:50;4.50;;;2.60;;
20000;SDS011;10161;41.188;-8.642;2022-10-30T04:23:18;3.50;;;2.70;;
20000;SDS011;10161;41.188;-8.642;2022-10-30T04:25:45;5.60;;;2.70;;
20000;SDS011;10161;41.188;-8.642;2022-10-30T04:28:13;3.20;;;2.50;;
20000;SDS011;10161;41.188;-8.642;2022-10-30T04:30:40;4.33;;;2.67;;
20000;SDS011;10161;41.188;-8.642;2022-10-30T04:33:09;3.20;;;2.40;;
20000;SDS011;10161;41.188;-8.642;2022-10-30T04:35:38;5.20;;;2.43;;
20000;SDS011;10161;41.188;-8.642;2022-10-30T04:38:06;4.67;;;2.60;;
20000;SDS011;10161;41.188;-8.642;2022-10-30T04:40:35;3.57;;;2.67;;
20000;SDS011;10161;41.188;-8.642;2022-10-30T04:43:03;5.43;;;3.17;;
20000;SDS011;10161;41.188;-8.642;2022-10-30T04:45:30;5.80;;;2.73;;
20000;SDS011;10161;41.188;-8.642;2022-10-30T04:48:01;3.87;;;3.00;;
20000;SDS011;10161;41.188;-8.642;2022-10-30T04:50:28;5.87;;;3.00;;
20000;SDS011;10161;41.188;-8.642;2022-10-30T04:53:01;7.07;;;3.43;;
20000;SDS011;10161;41.188;-8.642;2022-10-30T04:55:28;8.27;;;3.07;;
20000;SDS011;10161;41.188;-8.642;2022-10-30T04:57:56;6.77;;;3.40;;
20000;SDS011;10161;41.188;-8.642;2022-10-30T05:00:29;8.20;;;3.60;;
20000;SDS011;10161;41.188;-8.642;2022-10-30T05:02:57;4.43;;;3.23;;
20000;SDS011;10161;41.188;-8.642;2022-10-30T05:05:25;5.23;;;3.83;;
20000;SDS011;10161;41.188;-8.642;2022-10-30T05:07:53;3.87;;;3.17;;
20000;SDS011;10161;41.188;-8.642;2022-10-30T05:10:21;6.03;;;4.10;;
20000;SDS011;10161;41.188;-8.642;2022-10-30T05:12:49;7.17;;;3.83;;
20000;SDS011;10161;41.188;-8.642;2022-10-30T05:15:17;4.60;;;3.27;;
20000;SDS011;10161;41.188;-8.642;2022-10-30T05:17:55;5.37;;;3.70;;
20000;SDS011;10161;41.188;-8.642;2022-10-30T05:20:22;5.73;;;3.90;;
20000;SDS011;10161;41.188;-8.642;2022-10-30T05:22:52;8.80;;;3.47;;
20000;SDS011;10161;41.188;-8.642;2022-10-30T05:25:26;6.67;;;4.00;;
20000;SDS011;10161;41.188;-8.642;2022-10-30T05:27:56;8.87;;;4.80;;
20000;SDS011;10161;41.188;-8.642;2022-10-30T05:30:24;5.40;;;3.83;;
20000;SDS011;10161;41.188;-8.642;2022-10-30T05:32:55;4.60;;;3.80;;
20000;SDS011;10161;41.188;-8.642;2022-10-30T05:35:23;5.00;;;4.00;;
20000;SDS011;10161;41.188;-8.642;2022-10-30T05:37:50;6.20;;;3.90;;
20000;SDS011;10161;41.188;-8.642;2022-10-30T05:40:17;4.40;;;3.90;;
20000;SDS011;10161;41.188;-8.642;2022-10-30T05:42:45;6.30;;;4.20;;
20000;SDS011;10161;41.188;-8.642;2022-10-30T05:45:12;8.87;;;4.33;;
20000;SDS011;10161;41.188;-8.642;2022-10-30T05:51:01;4.07;;;3.50;;
20000;SDS011;10161;41.188;-8.642;2022-10-30T05:53:28;7.93;;;3.97;;
20000;SDS011;10161;41.188;-8.642;2022-10-30T05:55:55;5.40;;;4.57;;
20000;SDS011;10161;41.188;-8.642;2022-10-30T06:01:15;6.00;;;4.60;;
20000;SDS011;10161;41.188;-8.642;2022-10-30T06:03:42;6.60;;;4.43;;
20000;SDS011;10161;41.188;-8.642;2022-10-30T06:06:09;7.27;;;4.77;;
20000;SDS011;10161;41.188;-8.642;2022-10-30T06:08:36;9.33;;;4.63;;
20000;SDS011;10161;41.188;-8.642;2022-10-30T06:11:03;4.30;;;3.90;;
20000;SDS011;10161;41.188;-8.642;2022-10-30T06:13:30;5.13;;;4.33;;
20000;SDS011;10161;41.188;-8.642;2022-10-30T06:15:58;6.00;;;4.50;;
20000;SDS011;10161;41.188;-8.642;2022-10-30T06:18:25;6.73;;;5.00;;
20000;SDS011;10161;41.188;-8.642;2022-10-30T06:20:53;5.00;;;4.30;;
20000;SDS011;10161;41.188;-8.642;2022-10-30T06:23:20;7.20;;;4.00;;
20000;SDS011;10161;41.188;-8.642;2022-10-30T06:25:47;6.40;;;4.70;;
20000;SDS011;10161;41.188;-8.642;2022-10-30T06:28:14;5.17;;;4.30;;
20000;SDS011;10161;41.188;-8.642;2022-10-30T06:33:40;7.83;;;4.87;;
20000;SDS011;10161;41.188;-8.642;2022-10-30T06:36:07;7.33;;;4.80;;
20000;SDS011;10161;41.188;-8.642;2022-10-30T06:41:55;5.63;;;4.30;;
20000;SDS011;10161;41.188;-8.642;2022-10-30T06:44:22;6.70;;;4.70;;
20000;SDS011;10161;41.188;-8.642;2022-10-30T06:46:52;8.53;;;4.60;;
20000;SDS011;10161;41.188;-8.642;2022-10-30T06:52:28;5.60;;;4.63;;
20000;SDS011;10161;41.188;-8.642;2022-10-30T06:54:55;9.10;;;4.43;;
20000;SDS011;10161;41.188;-8.642;2022-10-30T06:57:22;6.93;;;4.90;;
20000;SDS011;10161;41.188;-8.642;2022-10-30T06:59:49;5.60;;;5.00;;
20000;SDS011;10161;41.188;-8.642;2022-10-30T07:02:17;6.30;;;4.80;;
20000;SDS011;10161;41.188;-8.642;2022-10-30T07:04:44;5.00;;;4.47;;
20000;SDS011;10161;41.188;-8.642;2022-10-30T07:07:11;5.07;;;4.53;;
20000;SDS011;10161;41.188;-8.642;2022-10-30T07:09:38;6.37;;;4.50;;
20000;SDS011;10161;41.188;-8.642;2022-10-30T07:12:05;5.30;;;4.53;;
20000;SDS011;10161;41.188;-8.642;2022-10-30T07:14:32;7.63;;;4.47;;
20000;SDS011;10161;41.188;-8.642;2022-10-30T07:16:59;5.07;;;4.23;;
20000;SDS011;10161;41.188;-8.642;2022-10-30T07:19:27;5.07;;;4.57;;
20000;SDS011;10161;41.188;-8.642;2022-10-30T07:21:54;5.90;;;4.20;;
20000;SDS011;10161;41.188;-8.642;2022-10-30T07:24:21;4.80;;;4.20;;
20000;SDS011;10161;41.188;-8.642;2022-10-30T07:26:48;5.60;;;4.30;;
20000;SDS011;10161;41.188;-8.642;2022-10-30T07:29:15;7.47;;;4.80;;
20000;SDS011;10161;41.188;-8.642;2022-10-30T07:31:44;6.37;;;4.30;;
20000;SDS011;10161;41.188;-8.642;2022-10-30T07:34:11;4.47;;;4.07;;
20000;SDS011;10161;41.188;-8.642;2022-10-30T07:36:40;7.30;;;4.70;;
20000;SDS011;10161;41.188;-8.642;2022-10-30T07:39:07;6.83;;;4.90;;
20000;SDS011;10161;41.188;-8.642;2022-10-30T07:41:33;7.07;;;4.77;;
20000;SDS011;10161;41.188;-8.642;2022-10-30T07:44:00;6.67;;;4.40;;
20000;SDS011;10161;41.188;-8.642;2022-10-30T07:46:27;5.83;;;4.93;;
20000;SDS011;10161;41.188;-8.642;2022-10-30T07:48:54;7.63;;;4.70;;
20000;SDS011;10161;41.188;-8.642;2022-10-30T07:51:21;5.20;;;4.70;;
20000;SDS011;10161;41.188;-8.642;2022-10-30T07:53:50;5.23;;;4.60;;
20000;SDS011;10161;41.188;-8.642;2022-10-30T07:56:17;4.97;;;4.40;;
20000;SDS011;10161;41.188;-8.642;2022-10-30T08:02:07;6.20;;;4.10;;
20000;SDS011;10161;41.188;-8.642;2022-10-30T08:04:35;4.97;;;4.33;;
20000;SDS011;10161;41.188;-8.642;2022-10-30T08:07:01;6.80;;;4.33;;
20000;SDS011;10161;41.188;-8.642;2022-10-30T08:09:30;4.93;;;4.43;;
20000;SDS011;10161;41.188;-8.642;2022-10-30T08:11:57;6.43;;;4.83;;
20000;SDS011;10161;41.188;-8.642;2022-10-30T08:14:24;6.50;;;4.87;;
20000;SDS011;10161;41.188;-8.642;2022-10-30T08:16:51;6.07;;;5.23;;
20000;SDS011;10161;41.188;-8.642;2022-10-30T08:19:18;7.20;;;4.80;;
20000;SDS011;10161;41.188;-8.642;2022-10-30T08:21:45;5.20;;;4.70;;
20000;SDS011;10161;41.188;-8.642;2022-10-30T08:24:11;5.50;;;4.70;;
20000;SDS011;10161;41.188;-8.642;2022-10-30T08:26:40;9.10;;;5.90;;
20000;SDS011;10161;41.188;-8.642;2022-10-30T08:29:07;6.30;;;5.70;;
20000;SDS011;10161;41.188;-8.642;2022-10-30T08:31:34;6.17;;;5.60;;
20000;SDS011;10161;41.188;-8.642;2022-10-30T08:34:01;6.93;;;5.20;;
20000;SDS011;10161;41.188;-8.642;2022-10-30T08:36:28;5.00;;;4.40;;
20000;SDS011;10161;41.188;-8.642;2022-10-30T08:38:55;4.90;;;4.50;;
20000;SDS011;10161;41.188;-8.642;2022-10-30T08:41:22;5.30;;;4.73;;
20000;SDS011;10161;41.188;-8.642;2022-10-30T08:43:50;5.03;;;4.10;;
20000;SDS011;10161;41.188;-8.642;2022-10-30T08:46:17;4.83;;;4.43;;
20000;SDS011;10161;41.188;-8.642;2022-10-30T08:48:44;3.83;;;3.53;;
20000;SDS011;10161;41.188;-8.642;2022-10-30T08:51:11;4.57;;;3.70;;
20000;SDS011;10161;41.188;-8.642;2022-10-30T08:53:38;3.90;;;3.60;;
20000;SDS011;10161;41.188;-8.642;2022-10-30T08:56:05;5.83;;;4.17;;
20000;SDS011;10161;41.188;-8.642;2022-10-30T08:58:32;3.70;;;3.40;;
20000;SDS011;10161;41.188;-8.642;2022-10-30T09:01:00;4.37;;;3.37;;
20000;SDS011;10161;41.188;-8.642;2022-10-30T09:03:27;3.97;;;3.17;;
20000;SDS011;10161;41.188;-8.642;2022-10-30T09:05:56;4.97;;;3.80;;
20000;SDS011;10161;41.188;-8.642;2022-10-30T09:08:23;4.00;;;3.60;;
20000;SDS011;10161;41.188;-8.642;2022-10-30T09:10:53;5.00;;;3.20;;
20000;SDS011;10161;41.188;-8.642;2022-10-30T09:13:20;3.27;;;2.93;;
20000;SDS011;10161;41.188;-8.642;2022-10-30T09:15:47;3.67;;;3.37;;
20000;SDS011;10161;41.188;-8.642;2022-10-30T09:18:15;4.23;;;3.00;;
20000;SDS011;10161;41.188;-8.642;2022-10-30T09:20:42;4.70;;;3.30;;
20000;SDS011;10161;41.188;-8.642;2022-10-30T09:23:09;6.07;;;4.40;;
20000;SDS011;10161;41.188;-8.642;2022-10-30T09:25:36;4.60;;;3.30;;
20000;SDS011;10161;41.188;-8.642;2022-10-30T09:28:04;4.07;;;3.43;;
20000;SDS011;10161;41.188;-8.642;2022-10-30T09:30:32;5.30;;;3.17;;
20000;SDS011;10161;41.188;-8.642;2022-10-30T09:32:59;4.10;;;3.03;;
20000;SDS011;10161;41.188;-8.642;2022-10-30T09:35:28;5.13;;;3.30;;
20000;SDS011;10161;41.188;-8.642;2022-10-30T09:40:50;5.67;;;3.43;;
20000;SDS011;10161;41.188;-8.642;2022-10-30T09:43:27;4.90;;;3.63;;
20000;SDS011;10161;41.188;-8.642;2022-10-30T09:49:38;5.20;;;3.77;;
20000;SDS011;10161;41.188;-8.642;2022-10-30T09:52:21;5.50;;;3.80;;
20000;SDS011;10161;41.188;-8.642;2022-10-30T09:54:57;4.07;;;3.60;;
20000;SDS011;10161;41.188;-8.642;2022-10-30T09:57:33;6.10;;;4.20;;
20000;SDS011;10161;41.188;-8.642;2022-10-30T10:00:06;5.43;;;3.90;;
20000;SDS011;10161;41.188;-8.642;2022-10-30T10:02:35;3.97;;;3.53;;
20000;SDS011;10161;41.188;-8.642;2022-10-30T10:05:04;5.67;;;4.37;;
20000;SDS011;10161;41.188;-8.642;2022-10-30T10:07:39;5.87;;;3.97;;
20000;SDS011;10161;41.188;-8.642;2022-10-30T10:10:10;6.03;;;4.50;;
20000;SDS011;10161;41.188;-8.642;2022-10-30T10:15:39;4.30;;;3.90;;
20000;SDS011;10161;41.188;-8.642;2022-10-30T10:18:11;4.40;;;4.00;;
20000;SDS011;10161;41.188;-8.642;2022-10-30T10:20:43;4.37;;;3.90;;
20000;SDS011;10161;41.188;-8.642;2022-10-30T10:23:13;3.67;;;3.37;;
20000;SDS011;10161;41.188;-8.642;2022-10-30T10:25:45;4.37;;;3.80;;
20000;SDS011;10161;41.188;-8.642;2022-10-30T10:28:19;7.97;;;4.07;;
20000;SDS011;10161;41.188;-8.642;2022-10-30T10:30:53;8.10;;;4.00;;
20000;SDS011;10161;41.188;-8.642;2022-10-30T10:33:30;4.33;;;3.93;;
20000;SDS011;10161;41.188;-8.642;2022-10-30T10:36:16;4.70;;;4.30;;
20000;SDS011;10161;41.188;-8.642;2022-10-30T10:38:53;5.90;;;3.60;;
20000;SDS011;10161;41.188;-8.642;2022-10-30T10:41:29;5.37;;;3.97;;
20000;SDS011;10161;41.188;-8.642;2022-10-30T10:44:05;4.03;;;3.70;;
20000;SDS011;10161;41.188;-8.642;2022-10-30T10:46:45;4.93;;;3.90;;
20000;SDS011;10161;41.188;-8.642;2022-10-30T10:49:23;4.30;;;3.27;;
20000;SDS011;10161;41.188;-8.642;2022-10-30T10:51:57;4.33;;;3.50;;
20000;SDS011;10161;41.188;-8.642;2022-10-30T10:54:28;3.87;;;3.57;;
20000;SDS011;10161;41.188;-8.642;2022-10-30T10:56:57;5.00;;;3.47;;
20000;SDS011;10161;41.188;-8.642;2022-10-30T10:59:28;3.90;;;3.50;;
20000;SDS011;10161;41.188;-8.642;2022-10-30T11:01:59;4.70;;;3.50;;
20000;SDS011;10161;41.188;-8.642;2022-10-30T11:04:39;6.60;;;3.43;;
20000;SDS011;10161;41.188;-8.642;2022-10-30T11:07:11;7.67;;;3.13;;
20000;SDS011;10161;41.188;-8.642;2022-10-30T11:09:45;6.30;;;3.00;;
20000;SDS011;10161;41.188;-8.642;2022-10-30T11:12:13;5.53;;;3.10;;
20000;SDS011;10161;41.188;-8.642;2022-10-30T11:14:40;4.50;;;2.47;;
20000;SDS011;10161;41.188;-8.642;2022-10-30T11:17:09;6.63;;;2.90;;
20000;SDS011;10161;41.188;-8.642;2022-10-30T11:19:41;5.43;;;2.83;;
20000;SDS011;10161;41.188;-8.642;2022-10-30T11:22:10;4.40;;;2.30;;
20000;SDS011;10161;41.188;-8.642;2022-10-30T11:24:42;4.90;;;2.50;;
20000;SDS011;10161;41.188;-8.642;2022-10-30T11:27:17;4.23;;;1.83;;
20000;SDS011;10161;41.188;-8.642;2022-10-30T11:29:51;3.47;;;1.90;;
20000;SDS011;10161;41.188;-8.642;2022-10-30T11:32:20;3.77;;;2.17;;
20000;SDS011;10161;41.188;-8.642;2022-10-30T11:34:59;3.23;;;2.13;;
20000;SDS011;10161;41.188;-8.642;2022-10-30T11:37:31;6.40;;;2.23;;
20000;SDS011;10161;41.188;-8.642;2022-10-30T11:40:04;3.87;;;2.10;;
20000;SDS011;10161;41.188;-8.642;2022-10-30T11:45:36;5.90;;;2.30;;
20000;SDS011;10161;41.188;-8.642;2022-10-30T11:48:07;5.30;;;2.10;;
20000;SDS011;10161;41.188;-8.642;2022-10-30T11:50:35;4.20;;;2.10;;
20000;SDS011;10161;41.188;-8.642;2022-10-30T11:53:08;5.53;;;1.97;;
20000;SDS011;10161;41.188;-8.642;2022-10-30T11:55:38;3.90;;;2.43;;
20000;SDS011;10161;41.188;-8.642;2022-10-30T11:58:06;5.63;;;2.47;;
20000;SDS011;10161;41.188;-8.642;2022-10-30T12:00:34;6.70;;;2.30;;
20000;SDS011;10161;41.188;-8.642;2022-10-30T12:03:02;3.20;;;1.80;;
20000;SDS011;10161;41.188;-8.642;2022-10-30T12:05:42;2.57;;;1.90;;
20000;SDS011;10161;41.188;-8.642;2022-10-30T12:08:16;2.40;;;1.90;;
20000;SDS011;10161;41.188;-8.642;2022-10-30T12:10:46;5.50;;;2.30;;
20000;SDS011;10161;41.188;-8.642;2022-10-30T12:13:21;3.57;;;1.97;;
20000;SDS011;10161;41.188;-8.642;2022-10-30T12:15:49;2.30;;;1.70;;
20000;SDS011;10161;41.188;-8.642;2022-10-30T12:18:26;4.90;;;2.30;;
20000;SDS011;10161;41.188;-8.642;2022-10-30T12:20:54;4.47;;;2.00;;
20000;SDS011;10161;41.188;-8.642;2022-10-30T12:23:22;3.30;;;1.87;;
20000;SDS011;10161;41.188;-8.642;2022-10-30T12:25:52;7.70;;;2.23;;
20000;SDS011;10161;41.188;-8.642;2022-10-30T12:28:20;3.43;;;1.87;;
20000;SDS011;10161;41.188;-8.642;2022-10-30T12:30:49;4.93;;;1.97;;
20000;SDS011;10161;41.188;-8.642;2022-10-30T12:33:31;3.93;;;2.20;;
20000;SDS011;10161;41.188;-8.642;2022-10-30T12:36:01;4.53;;;1.80;;
20000;SDS011;10161;41.188;-8.642;2022-10-30T12:38:32;5.33;;;2.30;;
20000;SDS011;10161;41.188;-8.642;2022-10-30T12:41:04;4.37;;;2.30;;
20000;SDS011;10161;41.188;-8.642;2022-10-30T12:46:30;3.17;;;1.80;;
20000;SDS011;10161;41.188;-8.642;2022-10-30T12:49:02;5.43;;;2.30;;
20000;SDS011;10161;41.188;-8.642;2022-10-30T12:51:34;4.63;;;2.37;;
20000;SDS011;10161;41.188;-8.642;2022-10-30T12:54:08;7.03;;;3.00;;
20000;SDS011;10161;41.188;-8.642;2022-10-30T12:56:45;6.00;;;2.93;;
20000;SDS011;10161;41.188;-8.642;2022-10-30T12:59:20;4.50;;;2.80;;
20000;SDS011;10161;41.188;-8.642;2022-10-30T13:01:54;8.30;;;2.90;;
20000;SDS011;10161;41.188;-8.642;2022-10-30T13:04:23;8.13;;;3.07;;
20000;SDS011;10161;41.188;-8.642;2022-10-30T13:06:54;2.97;;;2.50;;
20000;SDS011;10161;41.188;-8.642;2022-10-30T13:09:25;5.70;;;3.03;;
20000;SDS011;10161;41.188;-8.642;2022-10-30T13:11:58;6.50;;;2.90;;
20000;SDS011;10161;41.188;-8.642;2022-10-30T13:14:30;13.83;;;3.30;;
20000;SDS011;10161;41.188;-8.642;2022-10-30T13:17:00;10.40;;;3.20;;
20000;SDS011;10161;41.188;-8.642;2022-10-30T13:19:27;10.50;;;3.00;;
20000;SDS011;10161;41.188;-8.642;2022-10-30T13:21:54;5.93;;;2.40;;
20000;SDS011;10161;41.188;-8.642;2022-10-30T13:24:26;7.40;;;2.87;;
20000;SDS011;10161;41.188;-8.642;2022-10-30T13:27:01;4.53;;;2.50;;
20000;SDS011;10161;41.188;-8.642;2022-10-30T13:29:30;6.23;;;2.90;;
20000;SDS011;10161;41.188;-8.642;2022-10-30T13:32:07;6.50;;;2.60;;
20000;SDS011;10161;41.188;-8.642;2022-10-30T13:34:50;7.63;;;2.67;;
20000;SDS011;10161;41.188;-8.642;2022-10-30T13:37:22;7.93;;;2.23;;
20000;SDS011;10161;41.188;-8.642;2022-10-30T13:39:56;9.50;;;2.30;;
20000;SDS011;10161;41.188;-8.642;2022-10-30T13:42:32;7.00;;;2.43;;
20000;SDS011;10161;41.188;-8.642;2022-10-30T13:45:10;10.60;;;3.03;;
20000;SDS011;10161;41.188;-8.642;2022-10-30T13:47:51;8.03;;;2.60;;
20000;SDS011;10161;41.188;-8.642;2022-10-30T13:50:29;8.77;;;2.53;;
20000;SDS011;10161;41.188;-8.642;2022-10-30T13:53:08;4.67;;;2.13;;
20000;SDS011;10161;41.188;-8.642;2022-10-30T13:55:39;8.20;;;2.50;;
20000;SDS011;10161;41.188;-8.642;2022-10-30T13:58:10;7.00;;;2.10;;
20000;SDS011;10161;41.188;-8.642;2022-10-30T14:00:48;8.03;;;2.50;;
20000;SDS011;10161;41.188;-8.642;2022-10-30T14:03:22;5.00;;;2.47;;
20000;SDS011;10161;41.188;-8.642;2022-10-30T14:05:54;9.20;;;3.10;;
20000;SDS011;10161;41.188;-8.642;2022-10-30T14:08:28;6.13;;;2.10;;
20000;SDS011;10161;41.188;-8.642;2022-10-30T14:10:58;9.10;;;2.60;;
20000;SDS011;10161;41.188;-8.642;2022-10-30T14:13:28;13.83;;;2.67;;
20000;SDS011;10161;41.188;-8.642;2022-10-30T14:15:59;8.30;;;2.47;;
20000;SDS011;10161;41.188;-8.642;2022-10-30T14:18:31;7.67;;;2.60;;
20000;SDS011;10161;41.188;-8.642;2022-10-30T14:24:11;7.10;;;2.93;;
20000;SDS011;10161;41.188;-8.642;2022-10-30T14:26:46;8.93;;;2.57;;
20000;SDS011;10161;41.188;-8.642;2022-10-30T14:35:28;5.83;;;2.03;;
20000;SDS011;10161;41.188;-8.642;2022-10-30T14:40:54;6.23;;;1.87;;
20000;SDS011;10161;41.188;-8.642;2022-10-30T14:43:47;5.40;;;2.10;;
20000;SDS011;10161;41.188;-8.642;2022-10-30T14:46:22;9.93;;;2.20;;
20000;SDS011;10161;41.188;-8.642;2022-10-30T14:48:58;10.10;;;2.43;;
20000;SDS011;10161;41.188;-8.642;2022-10-30T14:51:28;6.77;;;2.13;;
20000;SDS011;10161;41.188;-8.642;2022-10-30T14:54:00;7.83;;;2.30;;
20000;SDS011;10161;41.188;-8.642;2022-10-30T14:56:33;5.77;;;2.30;;
20000;SDS011;10161;41.188;-8.642;2022-10-30T14:59:08;2.90;;;1.90;;
20000;SDS011;10161;41.188;-8.642;2022-10-30T15:01:44;6.17;;;2.27;;
20000;SDS011;10161;41.188;-8.642;2022-10-30T15:04:21;3.90;;;2.13;;
20000;SDS011;10161;41.188;-8.642;2022-10-30T15:06:52;6.40;;;2.33;;
20000;SDS011;10161;41.188;-8.642;2022-10-30T15:12:19;4.40;;;1.90;;
20000;SDS011;10161;41.188;-8.642;2022-10-30T15:14:55;5.60;;;2.43;;
20000;SDS011;10161;41.188;-8.642;2022-10-30T15:17:26;5.10;;;2.10;;
20000;SDS011;10161;41.188;-8.642;2022-10-30T15:19:55;4.07;;;1.87;;
20000;SDS011;10161;41.188;-8.642;2022-10-30T15:22:24;6.10;;;2.10;;
20000;SDS011;10161;41.188;-8.642;2022-10-30T15:24:52;8.73;;;2.70;;
20000;SDS011;10161;41.188;-8.642;2022-10-30T15:27:20;9.43;;;2.60;;
20000;SDS011;10161;41.188;-8.642;2022-10-30T15:29:51;4.00;;;2.27;;
20000;SDS011;10161;41.188;-8.642;2022-10-30T15:32:20;3.67;;;2.10;;
20000;SDS011;10161;41.188;-8.642;2022-10-30T15:34:51;6.17;;;2.40;;
20000;SDS011;10161;41.188;-8.642;2022-10-30T15:37:21;5.47;;;2.07;;
20000;SDS011;10161;41.188;-8.642;2022-10-30T15:39:48;7.17;;;2.60;;
20000;SDS011;10161;41.188;-8.642;2022-10-30T15:42:15;5.17;;;2.07;;
20000;SDS011;10161;41.188;-8.642;2022-10-30T15:44:44;8.87;;;2.70;;
20000;SDS011;10161;41.188;-8.642;2022-10-30T15:47:13;5.80;;;2.20;;
20000;SDS011;10161;41.188;-8.642;2022-10-30T15:49:45;9.50;;;2.23;;
20000;SDS011;10161;41.188;-8.642;2022-10-30T15:52:14;5.13;;;2.10;;
20000;SDS011;10161;41.188;-8.642;2022-10-30T15:54:45;4.70;;;2.07;;